X  Cerrar Datos meteorológicos de aviación METAR     EHRD Rotterdam The Hague Airport
Temperatura
6°C Temperatura
4°C Punto de rocío
87% Humedad



Viento
21 KM/H
13 MPH
6 M/S
11 NUDO



210°
SSO
Condiciones actuales

Nublado Nublado
Presión 1017.92 (hPa) - 30.06 (inHg)
Visibilidad 6.2 (milla) - 10 (km)
Aeropuerto
Código de aeropuerto EHRD

localidad: Rotterdam The Hague Airport
Distancia: 16 (km)

Metar:
EHRD 181925Z AUTO 21011KT 9999 OVC046 06/04 Q1018 NOSIG

Hora: 18-01-2021 20:25 CET